createdAt,value
2022-12-28T00:01:43.747Z,11.58
2022-12-28T00:04:10.521Z,11.59
2022-12-28T00:06:37.187Z,11.60
2022-12-28T00:09:04.068Z,11.66
2022-12-28T00:11:31.434Z,11.69
2022-12-28T00:14:01.375Z,11.73
2022-12-28T00:16:28.231Z,11.76
2022-12-28T00:18:56.184Z,11.81
2022-12-28T00:21:23.291Z,11.83
2022-12-28T00:23:51.546Z,11.85
2022-12-28T00:26:18.229Z,11.90
2022-12-28T00:28:45.051Z,11.93
2022-12-28T00:31:12.567Z,11.96
2022-12-28T00:33:39.475Z,11.99
2022-12-28T00:36:06.631Z,12.04
2022-12-28T00:38:35.375Z,12.05
2022-12-28T00:41:02.195Z,12.06
2022-12-28T00:43:28.880Z,12.06
2022-12-28T00:45:55.598Z,12.08
2022-12-28T00:48:22.576Z,12.10
2022-12-28T00:50:49.602Z,12.13
2022-12-28T00:53:18.218Z,12.14
2022-12-28T00:55:44.937Z,12.16
2022-12-28T00:58:11.571Z,12.18
2022-12-28T01:00:39.372Z,12.21
2022-12-28T01:03:06.096Z,12.22
2022-12-28T01:05:32.910Z,12.25
2022-12-28T01:07:59.513Z,12.27
2022-12-28T01:10:26.266Z,12.27
2022-12-28T01:12:53.928Z,12.30
2022-12-28T01:15:20.571Z,12.32
2022-12-28T01:17:47.236Z,12.35
2022-12-28T01:20:13.867Z,12.35
2022-12-28T01:22:40.481Z,12.38
2022-12-28T01:25:07.278Z,12.39
2022-12-28T01:27:33.971Z,12.39
2022-12-28T01:30:00.870Z,12.41
2022-12-28T01:32:27.517Z,12.44
2022-12-28T01:34:54.136Z,12.45
2022-12-28T01:37:20.841Z,12.47
2022-12-28T01:39:47.685Z,12.47
2022-12-28T01:42:18.761Z,12.46
2022-12-28T01:44:46.853Z,12.46
2022-12-28T01:47:22.211Z,12.46
2022-12-28T01:49:56.276Z,12.45
2022-12-28T01:52:35.531Z,12.43
2022-12-28T01:55:09.264Z,12.46
2022-12-28T01:58:02.288Z,12.47
2022-12-28T02:00:39.074Z,12.48
2022-12-28T02:03:09.669Z,12.50
2022-12-28T02:05:41.523Z,12.49
2022-12-28T02:08:11.223Z,12.49
2022-12-28T02:10:46.079Z,12.51
2022-12-28T02:13:14.460Z,12.54
2022-12-28T02:15:41.148Z,12.54
2022-12-28T02:18:08.215Z,12.55
2022-12-28T02:20:44.595Z,12.57
2022-12-28T02:23:11.222Z,12.59
2022-12-28T02:25:56.263Z,12.60
2022-12-28T02:28:25.762Z,12.64
2022-12-28T02:31:00.031Z,12.66
2022-12-28T02:33:33.673Z,12.64
2022-12-28T02:36:04.172Z,12.63
2022-12-28T02:38:38.406Z,12.63
2022-12-28T02:41:07.321Z,12.63
2022-12-28T02:43:34.304Z,12.64
2022-12-28T02:46:37.938Z,12.65
2022-12-28T02:49:39.351Z,12.65
2022-12-28T02:52:24.489Z,12.63
2022-12-28T02:55:12.711Z,12.62
2022-12-28T02:58:01.540Z,12.64
2022-12-28T03:00:39.027Z,12.64
2022-12-28T03:03:26.528Z,12.66
2022-12-28T03:06:30.263Z,12.67
2022-12-28T03:09:17.504Z,12.69
2022-12-28T03:11:47.183Z,12.69
2022-12-28T03:14:18.826Z,12.67
2022-12-28T03:17:06.000Z,12.68
2022-12-28T03:20:00.710Z,12.68
2022-12-28T03:22:47.243Z,12.67
2022-12-28T03:25:34.828Z,12.65
2022-12-28T03:28:21.468Z,12.63
2022-12-28T03:31:06.689Z,12.65
2022-12-28T03:33:38.758Z,12.65
2022-12-28T03:36:17.538Z,12.65
2022-12-28T03:38:46.991Z,12.65
2022-12-28T03:41:15.558Z,12.65
2022-12-28T03:43:46.725Z,12.67
2022-12-28T03:46:22.579Z,12.66
2022-12-28T03:48:49.705Z,12.64
2022-12-28T03:51:23.813Z,12.65
2022-12-28T03:53:50.608Z,12.61
2022-12-28T03:56:17.721Z,12.63
2022-12-28T03:58:44.335Z,12.63
2022-12-28T04:01:11.459Z,12.63
2022-12-28T04:03:38.400Z,12.63
2022-12-28T04:06:05.542Z,12.63
2022-12-28T04:08:32.525Z,12.65
2022-12-28T04:10:59.955Z,12.62
2022-12-28T04:13:29.775Z,12.61
2022-12-28T04:15:57.769Z,12.59
2022-12-28T04:18:24.470Z,12.59
2022-12-28T04:20:51.401Z,12.56
2022-12-28T04:23:18.123Z,12.55
2022-12-28T04:25:44.875Z,12.56
2022-12-28T04:28:11.528Z,12.62
2022-12-28T04:30:38.219Z,12.61
2022-12-28T04:33:04.874Z,12.61
2022-12-28T04:35:32.315Z,12.60
2022-12-28T04:37:59.054Z,12.61
2022-12-28T04:40:25.771Z,12.61
2022-12-28T04:42:52.383Z,12.59
2022-12-28T04:45:22.217Z,12.59
2022-12-28T04:47:49.339Z,12.60
2022-12-28T04:50:16.179Z,12.58
2022-12-28T04:52:43.412Z,12.59
2022-12-28T04:55:32.607Z,12.63
2022-12-28T04:57:56.740Z,12.62
2022-12-28T05:00:23.392Z,12.64
2022-12-28T05:02:51.287Z,12.67
2022-12-28T05:05:17.922Z,12.66
2022-12-28T05:07:44.587Z,12.66
2022-12-28T05:10:11.235Z,12.67
2022-12-28T05:12:37.931Z,12.69
2022-12-28T05:15:06.531Z,12.69
2022-12-28T05:17:33.237Z,12.68
2022-12-28T05:19:59.906Z,12.68
2022-12-28T05:22:26.571Z,12.67
2022-12-28T05:24:53.191Z,12.61
2022-12-28T05:27:19.903Z,12.64
2022-12-28T05:29:46.593Z,12.65
2022-12-28T05:32:13.488Z,12.65
2022-12-28T05:34:40.412Z,12.64
2022-12-28T05:37:07.135Z,12.63
2022-12-28T05:39:33.872Z,12.64
2022-12-28T05:42:01.213Z,12.64
2022-12-28T05:44:28.141Z,12.63
2022-12-28T05:46:54.868Z,12.61
2022-12-28T05:49:21.600Z,12.61
2022-12-28T05:51:52.233Z,12.60
2022-12-28T05:54:19.181Z,12.62
2022-12-28T05:56:46.115Z,12.64
2022-12-28T05:59:13.759Z,12.64
2022-12-28T06:01:41.524Z,12.65
2022-12-28T06:04:12.330Z,12.67
2022-12-28T06:06:39.050Z,12.68
2022-12-28T06:09:05.801Z,12.72
2022-12-28T06:11:32.527Z,12.74
2022-12-28T06:13:59.975Z,12.74
2022-12-28T06:16:29.178Z,12.74
2022-12-28T06:18:56.265Z,12.78
2022-12-28T06:21:23.136Z,12.78
2022-12-28T06:23:49.927Z,12.78
2022-12-28T06:26:18.199Z,12.79
2022-12-28T06:28:45.648Z,12.78
2022-12-28T06:31:13.994Z,12.75
2022-12-28T06:33:40.655Z,12.75
2022-12-28T06:36:17.706Z,12.79
2022-12-28T06:38:47.735Z,12.81
2022-12-28T06:41:15.161Z,12.80
2022-12-28T06:43:42.828Z,12.80
2022-12-28T06:46:09.918Z,12.80
2022-12-28T06:48:37.072Z,12.80
2022-12-28T06:51:04.914Z,12.81
2022-12-28T06:53:33.656Z,12.81
2022-12-28T06:56:02.364Z,12.80
2022-12-28T06:58:29.650Z,12.83
2022-12-28T07:00:56.950Z,12.84
2022-12-28T07:03:24.699Z,12.85
2022-12-28T07:05:51.450Z,12.85
2022-12-28T07:08:18.681Z,12.81
2022-12-28T07:10:45.396Z,12.82
2022-12-28T07:13:12.024Z,12.80
2022-12-28T07:15:38.693Z,12.77
2022-12-28T07:18:05.412Z,12.76
2022-12-28T07:20:37.042Z,12.76
2022-12-28T07:23:06.831Z,12.76
2022-12-28T07:25:33.477Z,12.74
2022-12-28T07:28:00.184Z,12.73
2022-12-28T07:30:26.979Z,12.75
2022-12-28T07:32:53.739Z,12.74
2022-12-28T07:35:20.486Z,12.73
2022-12-28T07:37:47.145Z,12.70
2022-12-28T07:40:13.853Z,12.70
2022-12-28T07:42:40.622Z,12.63
2022-12-28T07:45:11.224Z,12.62
2022-12-28T07:47:38.028Z,12.57
2022-12-28T07:50:05.038Z,12.58
2022-12-28T07:52:31.861Z,12.59
2022-12-28T07:54:58.740Z,12.55
2022-12-28T07:57:25.815Z,12.53
2022-12-28T07:59:52.551Z,12.51
2022-12-28T08:02:19.416Z,12.44
2022-12-28T08:04:52.016Z,12.43
2022-12-28T08:07:19.220Z,12.41
2022-12-28T08:09:45.979Z,12.37
2022-12-28T08:12:12.730Z,12.38
2022-12-28T08:14:39.514Z,12.38
2022-12-28T08:17:06.411Z,12.37
2022-12-28T08:19:33.485Z,12.32
2022-12-28T08:22:00.981Z,12.32
2022-12-28T08:24:27.850Z,12.34
2022-12-28T08:26:54.762Z,12.37
2022-12-28T08:29:22.287Z,12.39
2022-12-28T08:31:49.819Z,12.36
2022-12-28T08:34:18.092Z,12.37
2022-12-28T08:36:45.010Z,12.37
2022-12-28T08:39:11.780Z,12.38
2022-12-28T08:41:38.648Z,12.39
2022-12-28T08:47:23.854Z,12.35
2022-12-28T08:49:50.762Z,12.35
2022-12-28T08:52:17.496Z,12.26
2022-12-28T08:54:44.236Z,12.23
2022-12-28T08:57:11.085Z,12.24
2022-12-28T08:59:37.811Z,12.22
2022-12-28T09:02:04.711Z,12.26
2022-12-28T09:04:31.530Z,12.29
2022-12-28T09:06:58.132Z,12.30
2022-12-28T09:09:24.828Z,12.27
2022-12-28T09:11:51.678Z,12.26
2022-12-28T09:14:23.711Z,12.29
2022-12-28T09:16:51.989Z,12.30
2022-12-28T09:19:18.787Z,12.32
2022-12-28T09:21:49.273Z,12.29
2022-12-28T09:24:16.119Z,12.31
2022-12-28T09:26:42.840Z,12.28
2022-12-28T09:29:11.514Z,12.27
2022-12-28T09:31:38.767Z,12.29
2022-12-28T09:36:52.566Z,12.21
2022-12-28T09:39:20.665Z,12.22
2022-12-28T09:42:02.429Z,12.26
2022-12-28T09:44:41.052Z,12.28
2022-12-28T09:47:19.673Z,12.30
2022-12-28T09:49:46.288Z,12.32
2022-12-28T09:52:27.646Z,12.33
2022-12-28T09:54:55.224Z,12.33
2022-12-28T09:57:22.994Z,12.32
2022-12-28T09:59:49.794Z,12.33
2022-12-28T10:02:27.868Z,12.31
2022-12-28T10:04:54.741Z,12.31
2022-12-28T10:07:21.548Z,12.31
2022-12-28T10:09:48.911Z,12.30
2022-12-28T10:12:17.488Z,12.32
2022-12-28T10:14:46.400Z,12.32
2022-12-28T10:17:13.681Z,12.28
2022-12-28T10:19:40.729Z,12.26
2022-12-28T10:22:09.040Z,12.28
2022-12-28T10:24:36.442Z,12.27
2022-12-28T10:27:05.796Z,12.21
2022-12-28T10:29:33.407Z,12.20
2022-12-28T10:32:05.215Z,12.20
2022-12-28T10:34:34.465Z,12.22
2022-12-28T10:37:06.427Z,12.24
2022-12-28T10:39:47.969Z,12.22
2022-12-28T10:42:21.116Z,12.21
2022-12-28T10:44:49.460Z,12.18
2022-12-28T10:47:30.594Z,12.18
2022-12-28T10:52:55.314Z,12.18
2022-12-28T10:55:33.167Z,12.18
2022-12-28T10:58:30.321Z,12.21
2022-12-28T11:01:15.920Z,12.17
2022-12-28T11:03:46.527Z,12.17
2022-12-28T11:06:21.320Z,12.19
2022-12-28T11:09:02.401Z,12.19
2022-12-28T11:11:29.143Z,12.19
2022-12-28T11:13:58.989Z,12.18
2022-12-28T11:16:25.801Z,12.17
2022-12-28T11:18:52.544Z,12.17
2022-12-28T11:21:20.488Z,12.16
2022-12-28T11:23:48.520Z,12.19
2022-12-28T11:26:15.292Z,12.19
2022-12-28T11:28:43.075Z,12.20
2022-12-28T11:31:17.053Z,12.21
2022-12-28T11:33:49.154Z,12.22
2022-12-28T11:36:17.414Z,12.18
2022-12-28T11:38:45.613Z,12.16
2022-12-28T11:41:13.625Z,12.15
2022-12-28T11:43:48.160Z,12.18
2022-12-28T11:46:20.907Z,12.20
2022-12-28T11:49:03.635Z,12.18
2022-12-28T11:51:34.856Z,12.21
2022-12-28T11:54:05.686Z,12.20
2022-12-28T11:56:44.584Z,12.19
2022-12-28T11:59:20.844Z,12.18
2022-12-28T12:01:48.406Z,12.17
2022-12-28T12:04:19.714Z,12.19
2022-12-28T12:06:48.278Z,12.20
2022-12-28T12:09:21.051Z,12.21
2022-12-28T12:11:51.360Z,12.16
2022-12-28T12:14:21.964Z,12.16
2022-12-28T12:16:50.554Z,12.13
2022-12-28T12:19:29.179Z,12.15
2022-12-28T12:22:16.035Z,12.15
2022-12-28T12:24:54.664Z,12.14
2022-12-28T12:27:34.185Z,12.12
2022-12-28T12:30:02.512Z,12.14
2022-12-28T12:32:38.406Z,12.13
2022-12-28T12:35:06.688Z,12.11
2022-12-28T12:37:54.611Z,12.14
2022-12-28T12:40:46.068Z,12.13
2022-12-28T12:43:15.771Z,12.11
2022-12-28T12:45:48.342Z,12.13
2022-12-28T12:48:24.596Z,12.16
2022-12-28T12:50:57.870Z,12.18
2022-12-28T12:53:48.373Z,12.17
2022-12-28T12:56:54.752Z,12.20
2022-12-28T12:59:36.871Z,12.23
2022-12-28T13:02:14.603Z,12.24
2022-12-28T13:04:42.422Z,12.24
2022-12-28T13:07:17.037Z,12.26
2022-12-28T13:09:43.959Z,12.27
2022-12-28T13:12:14.631Z,12.31
2022-12-28T13:14:44.291Z,12.31
2022-12-28T13:17:16.608Z,12.34
2022-12-28T13:19:43.239Z,12.37
2022-12-28T13:22:30.165Z,12.35
2022-12-28T13:24:57.061Z,12.33
2022-12-28T13:27:24.022Z,12.34
2022-12-28T13:29:52.230Z,12.41
2022-12-28T13:32:25.486Z,12.43
2022-12-28T13:34:52.167Z,12.44
2022-12-28T13:37:19.344Z,12.42
2022-12-28T13:39:48.047Z,12.41
2022-12-28T13:42:17.431Z,12.44
2022-12-28T13:44:46.308Z,12.46
2022-12-28T13:47:16.009Z,12.47
2022-12-28T13:49:54.745Z,12.48
2022-12-28T13:52:25.975Z,12.50
2022-12-28T13:54:55.616Z,12.45
2022-12-28T14:00:11.066Z,12.46
2022-12-28T14:02:40.511Z,12.41
2022-12-28T14:05:08.149Z,12.43
2022-12-28T14:07:36.003Z,12.44
2022-12-28T14:10:03.303Z,12.44
2022-12-28T14:12:31.467Z,12.49
2022-12-28T14:14:58.962Z,12.51
2022-12-28T14:17:26.112Z,12.50
2022-12-28T14:19:55.976Z,12.51
2022-12-28T14:22:27.039Z,12.50
2022-12-28T14:25:01.092Z,12.55
2022-12-28T14:27:28.048Z,12.52
2022-12-28T14:29:55.461Z,12.50
2022-12-28T14:32:22.285Z,12.51
2022-12-28T14:34:55.622Z,12.52
2022-12-28T14:37:25.653Z,12.57
2022-12-28T14:39:52.399Z,12.61
2022-12-28T14:42:20.853Z,12.63
2022-12-28T14:44:52.541Z,12.65
2022-12-28T14:47:45.878Z,12.66
2022-12-28T14:50:25.321Z,12.70
2022-12-28T14:53:01.682Z,12.72
2022-12-28T14:55:34.096Z,12.77
2022-12-28T14:58:04.120Z,12.76
2022-12-28T15:00:33.931Z,12.77
2022-12-28T15:03:14.631Z,12.75
2022-12-28T15:05:43.346Z,12.78
2022-12-28T15:08:10.646Z,12.83
2022-12-28T15:10:42.794Z,12.85
2022-12-28T15:13:09.593Z,12.84
2022-12-28T15:15:36.300Z,12.85
2022-12-28T15:18:03.136Z,12.88
2022-12-28T15:20:29.858Z,12.89
2022-12-28T15:22:56.653Z,12.88
2022-12-28T15:25:23.737Z,12.88
2022-12-28T15:27:54.593Z,12.87
2022-12-28T15:30:24.393Z,12.89
2022-12-28T15:32:55.711Z,12.91
2022-12-28T15:35:22.457Z,12.91
2022-12-28T15:37:49.263Z,12.93
2022-12-28T15:40:16.055Z,12.93
2022-12-28T15:42:46.388Z,12.94
2022-12-28T15:45:13.830Z,12.97
2022-12-28T15:47:49.747Z,12.99
2022-12-28T15:50:16.427Z,12.98
2022-12-28T15:52:43.042Z,12.95
2022-12-28T15:55:09.991Z,12.98
2022-12-28T15:57:36.676Z,12.95
2022-12-28T16:00:04.008Z,12.94
2022-12-28T16:02:30.944Z,12.89
2022-12-28T16:04:58.087Z,12.86
2022-12-28T16:07:24.749Z,12.87
2022-12-28T16:09:51.386Z,12.84
2022-12-28T16:12:18.027Z,12.81
2022-12-28T16:14:45.965Z,12.78
2022-12-28T16:17:13.143Z,12.77
2022-12-28T16:19:39.825Z,12.78
2022-12-28T16:22:06.492Z,12.80
2022-12-28T16:24:33.193Z,12.83
2022-12-28T16:27:00.042Z,12.90
2022-12-28T16:29:26.780Z,12.92
2022-12-28T16:31:54.313Z,12.94
2022-12-28T16:34:21.042Z,12.95
2022-12-28T16:36:48.450Z,12.95
2022-12-28T16:39:16.168Z,12.98
2022-12-28T16:41:43.040Z,12.99
2022-12-28T16:44:13.840Z,12.96
2022-12-28T16:46:40.795Z,12.97
2022-12-28T16:49:07.487Z,12.98
2022-12-28T16:51:34.337Z,12.99
2022-12-28T16:54:00.964Z,13.03
2022-12-28T16:56:27.632Z,13.02
2022-12-28T16:58:58.153Z,13.02
2022-12-28T17:01:24.887Z,13.02
2022-12-28T17:03:51.718Z,12.98
2022-12-28T17:06:18.446Z,12.98
2022-12-28T17:08:45.154Z,12.99
2022-12-28T17:11:12.066Z,13.01
2022-12-28T17:13:39.157Z,12.99
2022-12-28T17:16:06.287Z,13.02
2022-12-28T17:18:32.990Z,13.02
2022-12-28T17:21:04.881Z,13.03
2022-12-28T17:23:33.539Z,13.03
2022-12-28T17:26:00.307Z,13.06
2022-12-28T17:28:27.150Z,13.09
2022-12-28T17:31:04.519Z,13.10
2022-12-28T17:33:37.109Z,13.06
2022-12-28T17:36:05.928Z,13.07
2022-12-28T17:38:33.740Z,13.06
2022-12-28T17:41:00.454Z,13.06
2022-12-28T17:43:27.095Z,13.07
2022-12-28T17:45:53.769Z,13.10
2022-12-28T17:48:20.509Z,13.02
2022-12-28T17:50:47.283Z,12.99
2022-12-28T17:53:14.064Z,13.00
2022-12-28T17:55:40.802Z,13.00
2022-12-28T17:58:07.433Z,13.01
2022-12-28T18:00:34.131Z,13.02
2022-12-28T18:03:01.039Z,13.00
2022-12-28T18:05:27.945Z,12.99
2022-12-28T18:07:54.570Z,12.97
2022-12-28T18:10:22.806Z,12.98
2022-12-28T18:12:50.413Z,12.94
2022-12-28T18:15:17.225Z,12.86
2022-12-28T18:17:50.801Z,12.85
2022-12-28T18:20:17.500Z,12.87
2022-12-28T18:22:44.144Z,12.82
2022-12-28T18:25:10.762Z,12.77
2022-12-28T18:27:37.438Z,12.78
2022-12-28T18:30:04.226Z,12.76
2022-12-28T18:32:30.904Z,12.70
2022-12-28T18:34:57.569Z,12.68
2022-12-28T18:37:24.249Z,12.66
2022-12-28T18:39:50.966Z,12.66
2022-12-28T18:42:19.588Z,12.68
2022-12-28T18:44:46.412Z,12.74
2022-12-28T18:47:13.737Z,12.79
2022-12-28T18:49:46.788Z,12.81
2022-12-28T18:52:14.422Z,12.83
2022-12-28T18:54:41.206Z,12.87
2022-12-28T18:57:07.924Z,12.88
2022-12-28T18:59:34.641Z,12.90
2022-12-28T19:02:11.877Z,12.88
2022-12-28T19:04:41.304Z,12.88
2022-12-28T19:07:08.131Z,12.88
2022-12-28T19:09:34.864Z,12.85
2022-12-28T19:12:01.666Z,12.83
2022-12-28T19:14:28.396Z,12.86
2022-12-28T19:16:55.055Z,12.86
2022-12-28T19:19:21.807Z,12.85
2022-12-28T19:21:52.330Z,12.87
2022-12-28T19:24:22.710Z,12.83
2022-12-28T19:26:49.603Z,12.83
2022-12-28T19:29:16.865Z,12.81
2022-12-28T19:31:43.998Z,12.77
2022-12-28T19:34:10.759Z,12.77
2022-12-28T19:36:37.446Z,12.79
2022-12-28T19:39:04.135Z,12.81
2022-12-28T19:41:30.965Z,12.83
2022-12-28T19:43:57.725Z,12.77
2022-12-28T19:46:31.728Z,12.77
2022-12-28T19:49:00.009Z,12.72
2022-12-28T19:51:30.793Z,12.71
2022-12-28T19:53:57.728Z,12.68
2022-12-28T19:56:24.539Z,12.66
2022-12-28T19:58:51.212Z,12.63
2022-12-28T20:01:19.705Z,12.58
2022-12-28T20:03:47.001Z,12.54
2022-12-28T20:06:15.105Z,12.47
2022-12-28T20:08:45.799Z,12.42
2022-12-28T20:11:12.464Z,12.41
2022-12-28T20:13:39.205Z,12.39
2022-12-28T20:16:06.231Z,12.40
2022-12-28T20:18:32.977Z,12.35
2022-12-28T20:21:20.866Z,12.32
2022-12-28T20:23:52.464Z,12.29
2022-12-28T20:26:20.022Z,12.32
2022-12-28T20:28:48.341Z,12.37
2022-12-28T20:31:15.821Z,12.41
2022-12-28T20:33:43.434Z,12.39
2022-12-28T20:36:14.869Z,12.41
2022-12-28T20:38:41.730Z,12.43
2022-12-28T20:41:35.725Z,12.43
2022-12-28T20:44:04.542Z,12.46
2022-12-28T20:46:31.519Z,12.49
2022-12-28T20:48:59.296Z,12.47
2022-12-28T20:51:26.441Z,12.48
2022-12-28T20:53:53.155Z,12.48
2022-12-28T20:56:19.936Z,12.50
2022-12-28T20:58:46.707Z,12.51
2022-12-28T21:01:15.045Z,12.49
2022-12-28T21:03:42.110Z,12.50
2022-12-28T21:06:09.042Z,12.49
2022-12-28T21:08:36.148Z,12.51
2022-12-28T21:11:02.878Z,12.51
2022-12-28T21:13:29.555Z,12.52
2022-12-28T21:15:56.598Z,12.50
2022-12-28T21:18:23.347Z,12.50
2022-12-28T21:20:51.066Z,12.52
2022-12-28T21:23:18.141Z,12.49
2022-12-28T21:25:44.783Z,12.47
2022-12-28T21:28:11.885Z,12.47
2022-12-28T21:30:38.726Z,12.45
2022-12-28T21:33:05.853Z,12.42
2022-12-28T21:35:34.752Z,12.40
2022-12-28T21:38:01.823Z,12.41
2022-12-28T21:40:28.695Z,12.39
2022-12-28T21:42:55.419Z,12.39
2022-12-28T21:45:22.152Z,12.39
2022-12-28T21:47:50.655Z,12.40
2022-12-28T21:50:17.367Z,12.38
2022-12-28T21:52:43.976Z,12.36
2022-12-28T21:55:29.503Z,12.32
2022-12-28T21:57:57.796Z,12.31
2022-12-28T22:00:44.949Z,12.30
2022-12-28T22:03:30.195Z,12.24
2022-12-28T22:06:04.734Z,12.23
2022-12-28T22:08:50.414Z,12.21
2022-12-28T22:11:43.566Z,12.18
2022-12-28T22:14:10.266Z,12.15
2022-12-28T22:16:37.136Z,12.11
2022-12-28T22:19:04.563Z,12.07
2022-12-28T22:21:31.676Z,12.08
2022-12-28T22:23:58.364Z,12.04
2022-12-28T22:26:25.186Z,11.99
2022-12-28T22:28:51.890Z,11.98
2022-12-28T22:31:18.626Z,11.99
2022-12-28T22:33:45.471Z,11.97
2022-12-28T22:36:13.639Z,11.98
2022-12-28T22:38:40.516Z,11.94
2022-12-28T22:41:07.126Z,11.96
2022-12-28T22:43:34.103Z,11.95
2022-12-28T22:46:01.653Z,11.96
2022-12-28T22:48:28.375Z,11.96
2022-12-28T22:50:55.061Z,11.92
2022-12-28T22:53:21.779Z,11.89
2022-12-28T22:55:58.307Z,11.87
2022-12-28T22:58:25.351Z,11.84
2022-12-28T23:00:52.290Z,11.84
2022-12-28T23:03:19.064Z,11.85
2022-12-28T23:05:52.676Z,11.82
2022-12-28T23:08:19.424Z,11.78
2022-12-28T23:11:05.690Z,11.74
2022-12-28T23:13:33.109Z,11.71
2022-12-28T23:16:03.238Z,11.70
2022-12-28T23:18:48.559Z,11.67
2022-12-28T23:21:37.159Z,11.64
2022-12-28T23:24:22.717Z,11.66
2022-12-28T23:27:07.846Z,11.68
2022-12-28T23:29:34.582Z,11.68
2022-12-28T23:32:01.398Z,11.66
2022-12-28T23:34:28.157Z,11.67
2022-12-28T23:36:58.476Z,11.68
2022-12-28T23:39:25.186Z,11.67
2022-12-28T23:41:52.123Z,11.67
2022-12-28T23:44:23.188Z,11.64
2022-12-28T23:46:53.918Z,11.67
2022-12-28T23:49:24.671Z,11.66
2022-12-28T23:51:51.322Z,11.66
2022-12-28T23:54:18.961Z,11.68
2022-12-28T23:56:45.983Z,11.69
2022-12-28T23:59:12.669Z,11.72
